Portada
METAR-TAF:

METAR-TAF

Aeroports :

Amman-Queen Alia, Jordània

latitud: 31-40N, longitud: 035-58E, altitud: 721 m

Observació

L'informe es va fer fa 28 minuts, a les 12:00 UTC
Vent 5 kt del Sud
Temperatura 28°C
Humitat 20%
Pressió 1017 hPa
Visibilitat: 6000 m

METAR: OJAI 281200Z 17005KT 6000 NSC 28/03 Q1017 NOSIG

Hora: 15:28 (12:28 UTC)

Pronòstic

L'informe es va fer fa 1 hora i 31 minuts, a les 10:57 UTC
Pronòstic vàlid del 28 a les 12 UTC al 29 a les 18 UTC
Vent 8 kt del Est/Nord-Est
Visibilitat: 5000 m
calitja
Probabilitat 30%
l' 28 a les 17 UTC al 29 a les 06 UTC
Vent 2 kt amb direcció variable

TAF: OJAI 281057Z 2812/2918 07008KT 5000 HZ NSC PROB30 2817/2906 VRB02KT

Observacions i pronòstics meteorològics de més de 4000 aeroports (METAR i TAF).

Les estacions disponibles són els punts grocs i vermells al mapa.

Posi el ratolí al punt desitjat per veure el nom de l'estació.

Feu clic per veure les observacions i els pronòstics meteorològics.

Per canviar el mapa: feu clic els botons verds amb una creu de color negre per apropar; al botó verd amb un guió per allunyar la imatge; o en les fletxes verdes per a mapes adjacents.


METAR-TAF: